sensor_id;sensor_type;location;lat;lon;timestamp;pressure;altitude;pressure_sealevel;temperature;humidity
49063;BME280;34876;51.464;-0.150;2023-06-22T00:03:09;101803.44;;;25.04;46.79
49063;BME280;34876;51.464;-0.150;2023-06-22T00:05:39;101805.69;;;25.02;46.82
49063;BME280;34876;51.464;-0.150;2023-06-22T00:08:08;101806.84;;;25.03;46.82
49063;BME280;34876;51.464;-0.150;2023-06-22T00:10:38;101802.98;;;25.03;46.80
49063;BME280;34876;51.464;-0.150;2023-06-22T00:13:10;101801.37;;;25.02;46.83
49063;BME280;34876;51.464;-0.150;2023-06-22T00:15:40;101799.34;;;25.01;46.83
49063;BME280;34876;51.464;-0.150;2023-06-22T00:18:11;101804.95;;;24.98;46.91
49063;BME280;34876;51.464;-0.150;2023-06-22T00:20:40;101802.47;;;24.99;46.88
49063;BME280;34876;51.464;-0.150;2023-06-22T00:23:11;101802.32;;;24.98;46.90
49063;BME280;34876;51.464;-0.150;2023-06-22T00:25:41;101797.11;;;24.98;46.90
49063;BME280;34876;51.464;-0.150;2023-06-22T00:28:11;101800.31;;;24.99;46.85
49063;BME280;34876;51.464;-0.150;2023-06-22T00:30:42;101804.70;;;25.00;46.82
49063;BME280;34876;51.464;-0.150;2023-06-22T00:33:11;101804.58;;;24.99;46.83
49063;BME280;34876;51.464;-0.150;2023-06-22T00:35:40;101801.55;;;24.99;46.84
49063;BME280;34876;51.464;-0.150;2023-06-22T00:38:11;101800.39;;;24.96;46.90
49063;BME280;34876;51.464;-0.150;2023-06-22T00:40:58;101807.45;;;24.96;46.89
49063;BME280;34876;51.464;-0.150;2023-06-22T00:43:27;101810.43;;;24.97;46.89
49063;BME280;34876;51.464;-0.150;2023-06-22T00:45:56;101810.15;;;24.96;46.89
49063;BME280;34876;51.464;-0.150;2023-06-22T00:48:27;101808.81;;;24.95;46.89
49063;BME280;34876;51.464;-0.150;2023-06-22T00:50:56;101808.39;;;24.95;46.90
49063;BME280;34876;51.464;-0.150;2023-06-22T00:53:26;101803.05;;;24.96;46.85
49063;BME280;34876;51.464;-0.150;2023-06-22T00:55:55;101808.06;;;24.94;46.89
49063;BME280;34876;51.464;-0.150;2023-06-22T00:58:25;101810.87;;;24.92;46.91
49063;BME280;34876;51.464;-0.150;2023-06-22T01:00:55;101811.88;;;24.94;46.86
49063;BME280;34876;51.464;-0.150;2023-06-22T01:03:25;101808.96;;;24.92;46.90
49063;BME280;34876;51.464;-0.150;2023-06-22T01:06:01;101807.19;;;24.92;46.88
49063;BME280;34876;51.464;-0.150;2023-06-22T01:08:39;101805.95;;;24.92;46.92
49063;BME280;34876;51.464;-0.150;2023-06-22T01:11:17;101804.05;;;24.90;46.92
49063;BME280;34876;51.464;-0.150;2023-06-22T01:13:52;101803.31;;;24.90;46.92
49063;BME280;34876;51.464;-0.150;2023-06-22T01:16:29;101796.85;;;24.91;46.86
49063;BME280;34876;51.464;-0.150;2023-06-22T01:19:05;101798.99;;;24.92;46.84
49063;BME280;34876;51.464;-0.150;2023-06-22T01:21:38;101799.89;;;24.92;46.81
49063;BME280;34876;51.464;-0.150;2023-06-22T01:24:15;101797.72;;;24.90;46.84
49063;BME280;34876;51.464;-0.150;2023-06-22T01:27:00;101794.32;;;24.92;46.82
49063;BME280;34876;51.464;-0.150;2023-06-22T01:29:35;101796.29;;;24.88;46.91
49063;BME280;34876;51.464;-0.150;2023-06-22T01:32:07;101795.30;;;24.89;46.86
49063;BME280;34876;51.464;-0.150;2023-06-22T01:34:37;101797.19;;;24.91;46.80
49063;BME280;34876;51.464;-0.150;2023-06-22T01:37:08;101795.78;;;24.89;46.83
49063;BME280;34876;51.464;-0.150;2023-06-22T01:39:37;101793.75;;;24.87;46.88
49063;BME280;34876;51.464;-0.150;2023-06-22T01:42:07;101797.02;;;24.86;46.92
49063;BME280;34876;51.464;-0.150;2023-06-22T01:44:36;101797.96;;;24.87;46.87
49063;BME280;34876;51.464;-0.150;2023-06-22T01:47:07;101798.42;;;24.88;46.84
49063;BME280;34876;51.464;-0.150;2023-06-22T01:49:36;101798.21;;;24.86;46.85
49063;BME280;34876;51.464;-0.150;2023-06-22T01:52:06;101795.02;;;24.88;46.83
49063;BME280;34876;51.464;-0.150;2023-06-22T01:54:37;101798.57;;;24.88;46.81
49063;BME280;34876;51.464;-0.150;2023-06-22T01:57:07;101803.99;;;24.86;46.84
49063;BME280;34876;51.464;-0.150;2023-06-22T01:59:42;101800.71;;;24.85;46.85
49063;BME280;34876;51.464;-0.150;2023-06-22T02:02:19;101797.83;;;24.85;46.84
49063;BME280;34876;51.464;-0.150;2023-06-22T02:04:54;101793.69;;;24.85;46.82
49063;BME280;34876;51.464;-0.150;2023-06-22T02:07:28;101794.21;;;24.86;46.80
49063;BME280;34876;51.464;-0.150;2023-06-22T02:09:59;101793.80;;;24.85;46.80
49063;BME280;34876;51.464;-0.150;2023-06-22T02:12:31;101794.22;;;24.85;46.80
49063;BME280;34876;51.464;-0.150;2023-06-22T02:15:02;101791.59;;;24.84;46.82
49063;BME280;34876;51.464;-0.150;2023-06-22T02:17:33;101789.85;;;24.84;46.83
49063;BME280;34876;51.464;-0.150;2023-06-22T02:20:03;101790.91;;;24.83;46.82
49063;BME280;34876;51.464;-0.150;2023-06-22T02:22:32;101793.15;;;24.83;46.80
49063;BME280;34876;51.464;-0.150;2023-06-22T02:25:02;101793.83;;;24.81;46.84
49063;BME280;34876;51.464;-0.150;2023-06-22T02:27:32;101788.77;;;24.81;46.84
49063;BME280;34876;51.464;-0.150;2023-06-22T02:30:01;101782.69;;;24.81;46.82
49063;BME280;34876;51.464;-0.150;2023-06-22T02:32:30;101780.89;;;24.81;46.80
49063;BME280;34876;51.464;-0.150;2023-06-22T02:35:00;101786.78;;;24.81;46.82
49063;BME280;34876;51.464;-0.150;2023-06-22T02:37:30;101790.04;;;24.81;46.80
49063;BME280;34876;51.464;-0.150;2023-06-22T02:40:01;101790.14;;;24.79;46.85
49063;BME280;34876;51.464;-0.150;2023-06-22T02:42:30;101790.59;;;24.78;46.86
49063;BME280;34876;51.464;-0.150;2023-06-22T02:45:00;101789.52;;;24.80;46.81
49063;BME280;34876;51.464;-0.150;2023-06-22T02:47:29;101790.71;;;24.79;46.82
49063;BME280;34876;51.464;-0.150;2023-06-22T02:49:58;101795.44;;;24.79;46.83
49063;BME280;34876;51.464;-0.150;2023-06-22T02:52:29;101794.43;;;24.79;46.78
49063;BME280;34876;51.464;-0.150;2023-06-22T02:54:58;101800.61;;;24.80;46.77
49063;BME280;34876;51.464;-0.150;2023-06-22T02:57:29;101803.34;;;24.80;46.78
49063;BME280;34876;51.464;-0.150;2023-06-22T02:59:58;101805.27;;;24.79;46.81
49063;BME280;34876;51.464;-0.150;2023-06-22T03:02:27;101805.32;;;24.77;46.82
49063;BME280;34876;51.464;-0.150;2023-06-22T03:04:56;101804.90;;;24.78;46.77
49063;BME280;34876;51.464;-0.150;2023-06-22T03:07:26;101804.65;;;24.77;46.80
49063;BME280;34876;51.464;-0.150;2023-06-22T03:09:55;101799.74;;;24.77;46.80
49063;BME280;34876;51.464;-0.150;2023-06-22T03:12:26;101798.18;;;24.78;46.75
49063;BME280;34876;51.464;-0.150;2023-06-22T03:14:56;101794.19;;;24.76;46.78
49063;BME280;34876;51.464;-0.150;2023-06-22T03:17:25;101796.04;;;24.75;46.80
49063;BME280;34876;51.464;-0.150;2023-06-22T03:19:54;101794.25;;;24.74;46.82
49063;BME280;34876;51.464;-0.150;2023-06-22T03:22:23;101794.69;;;24.75;46.77
49063;BME280;34876;51.464;-0.150;2023-06-22T03:24:51;101794.04;;;24.77;46.73
49063;BME280;34876;51.464;-0.150;2023-06-22T03:27:20;101790.81;;;24.76;46.75
49063;BME280;34876;51.464;-0.150;2023-06-22T03:29:48;101786.72;;;24.75;46.75
49063;BME280;34876;51.464;-0.150;2023-06-22T03:32:17;101782.01;;;24.74;46.77
49063;BME280;34876;51.464;-0.150;2023-06-22T03:34:47;101782.94;;;24.73;46.78
49063;BME280;34876;51.464;-0.150;2023-06-22T03:37:16;101782.90;;;24.74;46.74
49063;BME280;34876;51.464;-0.150;2023-06-22T03:39:46;101781.11;;;24.73;46.77
49063;BME280;34876;51.464;-0.150;2023-06-22T03:42:16;101777.32;;;24.72;46.77
49063;BME280;34876;51.464;-0.150;2023-06-22T03:44:45;101771.79;;;24.73;46.75
49063;BME280;34876;51.464;-0.150;2023-06-22T03:47:14;101764.92;;;24.73;46.72
49063;BME280;34876;51.464;-0.150;2023-06-22T03:49:43;101759.94;;;24.73;46.73
49063;BME280;34876;51.464;-0.150;2023-06-22T03:52:13;101760.12;;;24.72;46.75
49063;BME280;34876;51.464;-0.150;2023-06-22T03:54:42;101754.90;;;24.72;46.73
49063;BME280;34876;51.464;-0.150;2023-06-22T03:57:12;101748.62;;;24.72;46.71
49063;BME280;34876;51.464;-0.150;2023-06-22T03:59:41;101748.01;;;24.71;46.74
49063;BME280;34876;51.464;-0.150;2023-06-22T04:02:11;101750.08;;;24.71;46.73
49063;BME280;34876;51.464;-0.150;2023-06-22T04:04:39;101755.48;;;24.71;46.73
49063;BME280;34876;51.464;-0.150;2023-06-22T04:07:08;101763.26;;;24.71;46.72
49063;BME280;34876;51.464;-0.150;2023-06-22T04:09:37;101767.55;;;24.70;46.72
49063;BME280;34876;51.464;-0.150;2023-06-22T04:12:08;101766.57;;;24.70;46.75
49063;BME280;34876;51.464;-0.150;2023-06-22T04:14:37;101772.40;;;24.70;46.70
49063;BME280;34876;51.464;-0.150;2023-06-22T04:17:06;101777.09;;;24.69;46.74
49063;BME280;34876;51.464;-0.150;2023-06-22T04:19:35;101783.17;;;24.68;46.74
49063;BME280;34876;51.464;-0.150;2023-06-22T04:22:04;101783.94;;;24.68;46.75
49063;BME280;34876;51.464;-0.150;2023-06-22T04:24:34;101786.36;;;24.69;46.70
49063;BME280;34876;51.464;-0.150;2023-06-22T04:27:03;101787.05;;;24.70;46.66
49063;BME280;34876;51.464;-0.150;2023-06-22T04:29:33;101784.44;;;24.70;46.69
49063;BME280;34876;51.464;-0.150;2023-06-22T04:32:02;101783.73;;;24.68;46.69
49063;BME280;34876;51.464;-0.150;2023-06-22T04:34:31;101783.02;;;24.71;46.62
49063;BME280;34876;51.464;-0.150;2023-06-22T04:37:01;101781.62;;;24.72;46.59
49063;BME280;34876;51.464;-0.150;2023-06-22T04:39:31;101778.36;;;24.72;46.59
49063;BME280;34876;51.464;-0.150;2023-06-22T04:42:00;101779.16;;;24.70;46.64
49063;BME280;34876;51.464;-0.150;2023-06-22T04:44:29;101774.41;;;24.72;46.57
49063;BME280;34876;51.464;-0.150;2023-06-22T04:47:00;101777.98;;;24.73;46.54
49063;BME280;34876;51.464;-0.150;2023-06-22T04:49:30;101778.48;;;24.74;46.51
49063;BME280;34876;51.464;-0.150;2023-06-22T04:52:00;101779.04;;;24.74;46.49
49063;BME280;34876;51.464;-0.150;2023-06-22T04:54:31;101777.65;;;24.73;46.52
49063;BME280;34876;51.464;-0.150;2023-06-22T04:57:00;101777.98;;;24.75;46.48
49063;BME280;34876;51.464;-0.150;2023-06-22T04:59:31;101772.55;;;24.75;46.47
49063;BME280;34876;51.464;-0.150;2023-06-22T05:02:02;101769.71;;;24.75;46.46
49063;BME280;34876;51.464;-0.150;2023-06-22T05:04:32;101768.16;;;24.77;46.41
49063;BME280;34876;51.464;-0.150;2023-06-22T05:07:01;101767.23;;;24.79;46.35
49063;BME280;34876;51.464;-0.150;2023-06-22T05:09:31;101770.21;;;24.79;46.34
49063;BME280;34876;51.464;-0.150;2023-06-22T05:12:00;101780.58;;;24.76;46.45
49063;BME280;34876;51.464;-0.150;2023-06-22T05:14:29;101786.71;;;24.76;46.43
49063;BME280;34876;51.464;-0.150;2023-06-22T05:16:58;101791.07;;;24.76;46.42
49063;BME280;34876;51.464;-0.150;2023-06-22T05:19:27;101790.15;;;24.76;46.43
49063;BME280;34876;51.464;-0.150;2023-06-22T05:21:57;101789.11;;;24.75;46.44
49063;BME280;34876;51.464;-0.150;2023-06-22T05:24:26;101793.40;;;24.78;46.37
49063;BME280;34876;51.464;-0.150;2023-06-22T05:26:55;101791.73;;;24.79;46.34
49063;BME280;34876;51.464;-0.150;2023-06-22T05:29:25;101792.36;;;24.79;46.33
49063;BME280;34876;51.464;-0.150;2023-06-22T05:31:54;101793.49;;;24.78;46.36
49063;BME280;34876;51.464;-0.150;2023-06-22T05:34:23;101791.39;;;24.80;46.32
49063;BME280;34876;51.464;-0.150;2023-06-22T05:36:53;101790.46;;;24.80;46.32
49063;BME280;34876;51.464;-0.150;2023-06-22T05:39:22;101789.76;;;24.81;46.30
49063;BME280;34876;51.464;-0.150;2023-06-22T05:41:51;101793.86;;;24.82;46.25
49063;BME280;34876;51.464;-0.150;2023-06-22T05:44:21;101796.17;;;24.85;46.19
49063;BME280;34876;51.464;-0.150;2023-06-22T05:46:50;101801.33;;;24.85;46.19
49063;BME280;34876;51.464;-0.150;2023-06-22T05:49:19;101801.34;;;24.86;46.15
49063;BME280;34876;51.464;-0.150;2023-06-22T05:51:50;101798.21;;;24.86;46.15
49063;BME280;34876;51.464;-0.150;2023-06-22T05:54:19;101799.89;;;24.86;46.15
49063;BME280;34876;51.464;-0.150;2023-06-22T05:56:47;101803.24;;;24.85;46.19
49063;BME280;34876;51.464;-0.150;2023-06-22T05:59:17;101803.47;;;24.86;46.18
49063;BME280;34876;51.464;-0.150;2023-06-22T06:01:46;101803.66;;;24.86;46.14
49063;BME280;34876;51.464;-0.150;2023-06-22T06:04:15;101797.89;;;24.88;46.10
49063;BME280;34876;51.464;-0.150;2023-06-22T06:06:46;101796.63;;;24.90;46.07
49063;BME280;34876;51.464;-0.150;2023-06-22T06:09:15;101800.54;;;24.88;46.09
49063;BME280;34876;51.464;-0.150;2023-06-22T06:11:44;101802.25;;;24.88;46.11
49063;BME280;34876;51.464;-0.150;2023-06-22T06:14:13;101801.25;;;24.88;46.09
49063;BME280;34876;51.464;-0.150;2023-06-22T06:16:42;101802.13;;;24.89;46.08
49063;BME280;34876;51.464;-0.150;2023-06-22T06:19:12;101799.05;;;24.87;46.12
49063;BME280;34876;51.464;-0.150;2023-06-22T06:21:41;101795.39;;;24.90;46.06
49063;BME280;34876;51.464;-0.150;2023-06-22T06:24:11;101791.68;;;24.93;45.96
49063;BME280;34876;51.464;-0.150;2023-06-22T06:26:40;101791.51;;;24.91;46.02
49063;BME280;34876;51.464;-0.150;2023-06-22T06:29:09;101788.40;;;24.93;45.98
49063;BME280;34876;51.464;-0.150;2023-06-22T06:31:38;101789.16;;;24.90;46.03
49063;BME280;34876;51.464;-0.150;2023-06-22T06:34:07;101790.51;;;24.92;45.99
49063;BME280;34876;51.464;-0.150;2023-06-22T06:36:36;101789.48;;;24.94;45.91
49063;BME280;34876;51.464;-0.150;2023-06-22T06:39:05;101789.62;;;24.93;45.96
49063;BME280;34876;51.464;-0.150;2023-06-22T06:41:34;101784.58;;;24.92;45.98
49063;BME280;34876;51.464;-0.150;2023-06-22T06:44:03;101783.63;;;24.92;45.98
49063;BME280;34876;51.464;-0.150;2023-06-22T06:46:32;101778.56;;;24.93;45.92
49063;BME280;34876;51.464;-0.150;2023-06-22T06:49:01;101773.70;;;24.96;45.89
49063;BME280;34876;51.464;-0.150;2023-06-22T06:51:30;101772.22;;;24.99;45.80
49063;BME280;34876;51.464;-0.150;2023-06-22T06:53:59;101767.95;;;25.05;45.66
49063;BME280;34876;51.464;-0.150;2023-06-22T06:56:29;101767.15;;;25.01;45.75
49063;BME280;34876;51.464;-0.150;2023-06-22T06:58:58;101769.49;;;25.07;45.60
49063;BME280;34876;51.464;-0.150;2023-06-22T07:01:28;101769.68;;;25.03;45.70
49063;BME280;34876;51.464;-0.150;2023-06-22T07:03:59;101771.46;;;25.07;45.59
49063;BME280;34876;51.464;-0.150;2023-06-22T07:06:29;101771.89;;;25.06;45.61
49063;BME280;34876;51.464;-0.150;2023-06-22T07:08:58;101772.93;;;25.08;45.58
49063;BME280;34876;51.464;-0.150;2023-06-22T07:11:28;101773.60;;;25.16;45.36
49063;BME280;34876;51.464;-0.150;2023-06-22T07:13:57;101775.12;;;25.11;45.51
49063;BME280;34876;51.464;-0.150;2023-06-22T07:16:26;101776.30;;;25.15;45.40
49063;BME280;34876;51.464;-0.150;2023-06-22T07:18:56;101780.40;;;25.11;45.50
49063;BME280;34876;51.464;-0.150;2023-06-22T07:21:25;101775.44;;;25.15;45.38
49063;BME280;34876;51.464;-0.150;2023-06-22T07:23:54;101772.09;;;25.16;45.38
49063;BME280;34876;51.464;-0.150;2023-06-22T07:26:27;101769.93;;;25.20;45.27
49063;BME280;34876;51.464;-0.150;2023-06-22T07:28:57;101770.06;;;25.20;45.27
49063;BME280;34876;51.464;-0.150;2023-06-22T07:31:27;101765.91;;;25.21;45.27
49063;BME280;34876;51.464;-0.150;2023-06-22T07:33:57;101763.40;;;25.22;45.23
49063;BME280;34876;51.464;-0.150;2023-06-22T07:36:26;101763.23;;;25.25;45.15
49063;BME280;34876;51.464;-0.150;2023-06-22T07:39:00;101762.16;;;25.24;45.20
49063;BME280;34876;51.464;-0.150;2023-06-22T07:41:29;101762.66;;;25.18;45.35
49063;BME280;34876;51.464;-0.150;2023-06-22T07:43:59;101763.77;;;25.22;45.24
49063;BME280;34876;51.464;-0.150;2023-06-22T07:46:28;101761.52;;;25.28;45.11
49063;BME280;34876;51.464;-0.150;2023-06-22T07:48:58;101760.74;;;25.31;45.05
49063;BME280;34876;51.464;-0.150;2023-06-22T07:51:27;101760.88;;;25.27;45.14
49063;BME280;34876;51.464;-0.150;2023-06-22T07:53:57;101762.72;;;25.30;45.06
49063;BME280;34876;51.464;-0.150;2023-06-22T07:56:26;101760.05;;;25.32;45.00
49063;BME280;34876;51.464;-0.150;2023-06-22T07:58:55;101754.71;;;25.38;44.90
49063;BME280;34876;51.464;-0.150;2023-06-22T08:01:24;101756.33;;;25.39;44.83
49063;BME280;34876;51.464;-0.150;2023-06-22T08:03:53;101757.46;;;25.40;44.83
49063;BME280;34876;51.464;-0.150;2023-06-22T08:06:22;101755.02;;;25.40;44.82
49063;BME280;34876;51.464;-0.150;2023-06-22T08:08:51;101753.91;;;25.45;44.74
49063;BME280;34876;51.464;-0.150;2023-06-22T08:11:22;101752.91;;;25.46;44.85
49063;BME280;34876;51.464;-0.150;2023-06-22T08:13:51;101752.90;;;25.59;44.39
49063;BME280;34876;51.464;-0.150;2023-06-22T08:16:21;101751.72;;;25.71;44.10
49063;BME280;34876;51.464;-0.150;2023-06-22T08:18:50;101751.74;;;25.60;44.55
49063;BME280;34876;51.464;-0.150;2023-06-22T08:21:18;101749.90;;;25.60;44.61
49063;BME280;34876;51.464;-0.150;2023-06-22T08:23:48;101750.65;;;25.55;44.50
49063;BME280;34876;51.464;-0.150;2023-06-22T08:26:17;101754.19;;;25.57;44.47
49063;BME280;34876;51.464;-0.150;2023-06-22T08:28:46;101754.66;;;25.29;46.59
49063;BME280;34876;51.464;-0.150;2023-06-22T08:31:15;101751.86;;;25.70;44.19
49063;BME280;34876;51.464;-0.150;2023-06-22T08:33:44;101749.15;;;25.62;45.64
49063;BME280;34876;51.464;-0.150;2023-06-22T08:36:14;101747.14;;;25.64;44.36
49063;BME280;34876;51.464;-0.150;2023-06-22T08:38:43;101746.01;;;25.73;44.12
49063;BME280;34876;51.464;-0.150;2023-06-22T08:41:12;101745.12;;;25.89;44.08
49063;BME280;34876;51.464;-0.150;2023-06-22T08:43:42;101743.00;;;25.86;45.09
49063;BME280;34876;51.464;-0.150;2023-06-22T08:46:11;101740.26;;;25.74;44.07
49063;BME280;34876;51.464;-0.150;2023-06-22T08:48:40;101741.26;;;25.65;44.28
49063;BME280;34876;51.464;-0.150;2023-06-22T08:51:10;101742.16;;;25.74;44.16
49063;BME280;34876;51.464;-0.150;2023-06-22T08:53:39;101737.80;;;25.60;44.54
49063;BME280;34876;51.464;-0.150;2023-06-22T08:56:08;101735.12;;;25.60;44.42
49063;BME280;34876;51.464;-0.150;2023-06-22T08:58:37;101736.29;;;25.60;44.43
49063;BME280;34876;51.464;-0.150;2023-06-22T09:01:07;101737.86;;;25.61;44.39
49063;BME280;34876;51.464;-0.150;2023-06-22T09:03:36;101739.23;;;25.67;44.27
49063;BME280;34876;51.464;-0.150;2023-06-22T09:06:05;101740.94;;;25.76;44.91
49063;BME280;34876;51.464;-0.150;2023-06-22T09:08:34;101745.49;;;26.09;43.34
49063;BME280;34876;51.464;-0.150;2023-06-22T09:11:03;101745.27;;;26.11;43.26
49063;BME280;34876;51.464;-0.150;2023-06-22T09:13:33;101745.49;;;26.10;43.23
49063;BME280;34876;51.464;-0.150;2023-06-22T09:16:02;101751.52;;;26.11;43.20
49063;BME280;34876;51.464;-0.150;2023-06-22T09:18:32;101752.75;;;26.11;43.55
49063;BME280;34876;51.464;-0.150;2023-06-22T09:21:01;101751.42;;;25.91;43.66
49063;BME280;34876;51.464;-0.150;2023-06-22T09:23:31;101751.31;;;26.16;43.80
49063;BME280;34876;51.464;-0.150;2023-06-22T09:26:01;101753.32;;;25.82;43.90
49063;BME280;34876;51.464;-0.150;2023-06-22T09:28:31;101750.49;;;25.96;44.34
49063;BME280;34876;51.464;-0.150;2023-06-22T09:31:07;101750.14;;;25.89;43.74
49063;BME280;34876;51.464;-0.150;2023-06-22T09:33:37;101749.02;;;26.22;42.92
49063;BME280;34876;51.464;-0.150;2023-06-22T09:36:06;101747.83;;;26.28;42.81
49063;BME280;34876;51.464;-0.150;2023-06-22T09:38:36;101747.49;;;26.09;43.18
49063;BME280;34876;51.464;-0.150;2023-06-22T09:41:05;101747.63;;;26.46;42.37
49063;BME280;34876;51.464;-0.150;2023-06-22T09:43:35;101745.26;;;26.82;42.09
49063;BME280;34876;51.464;-0.150;2023-06-22T09:46:05;101753.69;;;26.39;42.54
49063;BME280;34876;51.464;-0.150;2023-06-22T09:48:34;101753.47;;;26.25;42.96
49063;BME280;34876;51.464;-0.150;2023-06-22T09:51:04;101750.51;;;26.32;43.01
49063;BME280;34876;51.464;-0.150;2023-06-22T09:53:34;101752.87;;;26.05;43.36
49063;BME280;34876;51.464;-0.150;2023-06-22T09:56:04;101752.78;;;26.05;43.27
49063;BME280;34876;51.464;-0.150;2023-06-22T09:58:33;101750.89;;;26.05;42.72
49063;BME280;34876;51.464;-0.150;2023-06-22T10:01:02;101749.73;;;25.95;43.48
49063;BME280;34876;51.464;-0.150;2023-06-22T10:03:32;101749.19;;;25.92;43.60
49063;BME280;34876;51.464;-0.150;2023-06-22T10:06:01;101744.82;;;26.73;41.63
49063;BME280;34876;51.464;-0.150;2023-06-22T10:08:31;101743.95;;;26.86;41.41
49063;BME280;34876;51.464;-0.150;2023-06-22T10:10:59;101739.14;;;26.85;41.41
49063;BME280;34876;51.464;-0.150;2023-06-22T10:13:29;101737.13;;;26.65;41.89
49063;BME280;34876;51.464;-0.150;2023-06-22T10:15:58;101741.32;;;26.51;42.18
49063;BME280;34876;51.464;-0.150;2023-06-22T10:18:28;101742.05;;;26.13;42.38
49063;BME280;34876;51.464;-0.150;2023-06-22T10:20:57;101742.31;;;26.29;42.71
49063;BME280;34876;51.464;-0.150;2023-06-22T10:23:28;101739.78;;;26.43;42.31
49063;BME280;34876;51.464;-0.150;2023-06-22T10:25:57;101740.51;;;26.11;43.03
49063;BME280;34876;51.464;-0.150;2023-06-22T10:28:27;101736.43;;;26.54;42.07
49063;BME280;34876;51.464;-0.150;2023-06-22T10:30:56;101727.62;;;26.85;41.33
49063;BME280;34876;51.464;-0.150;2023-06-22T10:33:25;101729.84;;;27.07;40.69
49063;BME280;34876;51.464;-0.150;2023-06-22T10:35:55;101722.51;;;27.37;38.64
49063;BME280;34876;51.464;-0.150;2023-06-22T10:38:24;101725.83;;;27.86;38.88
49063;BME280;34876;51.464;-0.150;2023-06-22T10:40:54;101726.35;;;27.60;37.98
49063;BME280;34876;51.464;-0.150;2023-06-22T10:43:24;101723.11;;;27.41;39.97
49063;BME280;34876;51.464;-0.150;2023-06-22T10:45:54;101718.39;;;27.91;37.20
49063;BME280;34876;51.464;-0.150;2023-06-22T10:48:24;101718.27;;;27.60;39.18
49063;BME280;34876;51.464;-0.150;2023-06-22T10:50:54;101718.90;;;27.72;39.21
49063;BME280;34876;51.464;-0.150;2023-06-22T10:53:23;101718.06;;;26.74;41.72
49063;BME280;34876;51.464;-0.150;2023-06-22T10:55:52;101717.84;;;26.68;42.08
49063;BME280;34876;51.464;-0.150;2023-06-22T10:58:21;101715.58;;;26.54;42.48
49063;BME280;34876;51.464;-0.150;2023-06-22T11:00:50;101717.72;;;27.11;40.81
49063;BME280;34876;51.464;-0.150;2023-06-22T11:03:19;101720.31;;;26.89;41.56
49063;BME280;34876;51.464;-0.150;2023-06-22T11:05:49;101721.50;;;26.79;39.10
49063;BME280;34876;51.464;-0.150;2023-06-22T11:08:18;101725.07;;;26.42;42.67
49063;BME280;34876;51.464;-0.150;2023-06-22T11:10:48;101720.39;;;26.55;42.31
49063;BME280;34876;51.464;-0.150;2023-06-22T11:13:17;101727.59;;;26.28;42.03
49063;BME280;34876;51.464;-0.150;2023-06-22T11:15:46;101726.17;;;26.25;43.22
49063;BME280;34876;51.464;-0.150;2023-06-22T11:18:15;101726.38;;;26.21;41.55
49063;BME280;34876;51.464;-0.150;2023-06-22T11:20:44;101727.32;;;26.40;42.42
49063;BME280;34876;51.464;-0.150;2023-06-22T11:23:13;101721.16;;;26.59;39.66
49063;BME280;34876;51.464;-0.150;2023-06-22T11:25:43;101723.44;;;26.82;39.05
49063;BME280;34876;51.464;-0.150;2023-06-22T11:28:11;101724.39;;;26.84;41.15
49063;BME280;34876;51.464;-0.150;2023-06-22T11:30:40;101722.04;;;26.71;41.69
49063;BME280;34876;51.464;-0.150;2023-06-22T11:33:10;101720.31;;;26.64;40.64
49063;BME280;34876;51.464;-0.150;2023-06-22T11:35:39;101723.61;;;26.35;42.69
49063;BME280;34876;51.464;-0.150;2023-06-22T11:38:08;101712.18;;;26.59;41.35
49063;BME280;34876;51.464;-0.150;2023-06-22T11:40:37;101707.90;;;26.65;38.97
49063;BME280;34876;51.464;-0.150;2023-06-22T11:43:06;101704.59;;;27.02;37.57
49063;BME280;34876;51.464;-0.150;2023-06-22T11:45:36;101701.47;;;27.05;37.33
49063;BME280;34876;51.464;-0.150;2023-06-22T11:48:05;101695.97;;;27.26;39.60
49063;BME280;34876;51.464;-0.150;2023-06-22T11:50:34;101692.47;;;27.46;38.04
49063;BME280;34876;51.464;-0.150;2023-06-22T11:53:03;101693.55;;;27.50;39.02
49063;BME280;34876;51.464;-0.150;2023-06-22T11:55:32;101692.84;;;27.52;36.94
49063;BME280;34876;51.464;-0.150;2023-06-22T11:58:01;101685.83;;;27.59;35.52
49063;BME280;34876;51.464;-0.150;2023-06-22T12:00:30;101686.74;;;27.73;35.63
49063;BME280;34876;51.464;-0.150;2023-06-22T12:02:59;101683.75;;;27.70;34.67
49063;BME280;34876;51.464;-0.150;2023-06-22T12:05:28;101681.06;;;27.59;35.59
49063;BME280;34876;51.464;-0.150;2023-06-22T12:07:57;101682.72;;;27.49;36.64
49063;BME280;34876;51.464;-0.150;2023-06-22T12:10:34;101689.73;;;26.95;40.76
49063;BME280;34876;51.464;-0.150;2023-06-22T12:13:04;101685.94;;;26.84;36.09
49063;BME280;34876;51.464;-0.150;2023-06-22T12:15:33;101685.10;;;26.75;41.27
49063;BME280;34876;51.464;-0.150;2023-06-22T12:18:02;101683.54;;;26.64;36.47
49063;BME280;34876;51.464;-0.150;2023-06-22T12:20:37;101682.76;;;26.81;40.59
49063;BME280;34876;51.464;-0.150;2023-06-22T12:23:07;101677.75;;;26.91;35.52
49063;BME280;34876;51.464;-0.150;2023-06-22T12:25:37;101677.05;;;26.77;36.75
49063;BME280;34876;51.464;-0.150;2023-06-22T12:28:06;101676.78;;;27.07;35.35
49063;BME280;34876;51.464;-0.150;2023-06-22T12:30:35;101677.03;;;27.11;38.95
49063;BME280;34876;51.464;-0.150;2023-06-22T12:33:05;101681.73;;;26.84;38.50
49063;BME280;34876;51.464;-0.150;2023-06-22T12:35:34;101678.81;;;26.95;34.36
49063;BME280;34876;51.464;-0.150;2023-06-22T12:38:03;101681.32;;;26.62;40.82
49063;BME280;34876;51.464;-0.150;2023-06-22T12:40:32;101683.24;;;26.54;36.18
49063;BME280;34876;51.464;-0.150;2023-06-22T12:43:01;101685.03;;;26.35;36.52
49063;BME280;34876;51.464;-0.150;2023-06-22T12:45:30;101683.36;;;26.29;41.64
49063;BME280;34876;51.464;-0.150;2023-06-22T12:47:59;101678.27;;;26.32;41.27
49063;BME280;34876;51.464;-0.150;2023-06-22T12:50:28;101684.69;;;26.16;40.93
49063;BME280;34876;51.464;-0.150;2023-06-22T12:52:58;101684.17;;;26.05;37.04
49063;BME280;34876;51.464;-0.150;2023-06-22T12:55:27;101675.83;;;26.37;36.94